Pasco, WA

2:14 PM PST on January 19, 2017 (GMT -0800)
Madison Park | | Change Station

Elev 505 ft 46.28 °N, 119.15 °W | Updated 23 seconds ago

Clear
Clear
43.9 °F
Feels Like 44 °F
N
2.2
Wind Variable Wind from ENE

Today
High -- | Low -- °F
--% Chance of Precip.
Yesterday
High -- | Low -- °F
Precip. -- in
Pressure 29.62 in
Visibility 7.0 miles
Clouds Clear
Windchill 44 °F
Dew Point 38 °F
Humidity 78%
Rainfall 0.25 in
Snow Depth Not available.
7:32 AM 4:42 PM
Waning Gibbous, 50% visible
METAR KPSC 192153Z 12003KT 7SM CLR 04/02 A2960 RMK AO2 SLP028 T00440022
Pressure 29.62 in
Visibility 7.0 miles
Clouds Clear
Windchill 44 °F
Dew Point 38 °F
Humidity 78%
Rainfall 0.25 in
Snow Depth Not available.
7:32 AM 4:42 PM
Waning Gibbous, 50% visible
METAR KPSC 192153Z 12003KT 7SM CLR 04/02 A2960 RMK AO2 SLP028 T00440022

Get Your Daily Forecast Email!

Thanks for signing up!

Be on the lookout for a verification email in your inbox.

You'll start receiving the daily forecast at 8 AM.

×

10-Day Weather Forecast

Almanac

Astronomy

Jan. 19, 2017 Rise Set
Actual Time
Civil Twilight
Nautical Twilight
Astronomical Twilight
Moon
Length of Visible Light
Length of Day
Tomorrow will be .
, % of the Moon is Illuminated

Today's Extremes

State Highs State Lows

Community

WunderPhotos

Upload Photos

1,962,540 photos uploaded!

WunderBlog® & News

Nearby

Air Quality

  Air Quality AQ Index Pollutant
Not available.

Snow Depth

Station Depth Elevation

Earthquake Activity

City Distance Mag. Time & Date
Minimum magnitude displayed is 2.5.

Coastal Water Temperatures

Place Temperature

Stations

Nearby Weather Stations

Station Location Temp. Windchill Dew Point Humidity Wind Precip. Elev Updated Type
                   

Watches & Warnings

There are currently no watches in effect.